Time;durP1;ratioP1;P1;durP2;ratioP2;P2;SDS_P1;SDS_P2;PMS_P1;PMS_P2;Temp;Humidity;BMP_temperature;BMP_pressure;BME280_temperature;BME280_humidity;BME280_pressure;Samples;Min_cycle;Max_cycle;Signal;HPM_P1;HPM_P2
2022/09/13 05:28:59;;;;;;;18.85;13.83;;;;;;;11.67;100.00;99011.41;1746447;78;21070;-44
2022/09/13 05:31:29;;;;;;;15.98;12.47;;;;;;;11.67;100.00;99015.33;1762144;80;21485;-44
2022/09/13 05:34:03;;;;;;;14.60;12.68;;;;;;;11.70;100.00;99013.07;1758419;81;20998;-44
2022/09/13 05:36:31;;;;;;;16.42;13.22;;;;;;;11.71;100.00;99013.05;1763195;81;21555;-44
2022/09/13 05:38:59;;;;;;;16.45;13.32;;;;;;;11.75;100.00;99018.20;1757444;81;21049;-37
2022/09/13 05:41:27;;;;;;;17.10;13.48;;;;;;;11.78;100.00;99012.45;1760359;81;20985;-36
2022/09/13 05:43:55;;;;;;;19.32;13.40;;;;;;;11.84;100.00;99015.40;1760719;81;21383;-39
2022/09/13 05:46:24;;;;;;;16.45;10.82;;;;;;;11.86;100.00;99015.76;1755526;81;21402;-43
2022/09/13 05:48:54;;;;;;;18.40;12.98;;;;;;;11.92;100.00;99018.22;1707600;81;21569;-36
2022/09/13 05:51:26;;;;;;;17.95;13.40;;;;;;;11.98;100.00;99022.45;1747299;81;21065;-42
2022/09/13 05:53:56;;;;;;;15.25;12.63;;;;;;;12.04;100.00;99024.05;1720761;81;21089;-43
2022/09/13 05:56:27;;;;;;;16.95;12.80;;;;;;;12.08;100.00;99023.94;1702217;81;20982;-36
2022/09/13 05:58:56;;;;;;;15.03;12.23;;;;;;;12.10;100.00;99021.27;1722038;81;21715;-43
2022/09/13 06:01:26;;;;;;;12.43;10.23;;;;;;;12.14;100.00;99026.84;1737091;81;20992;-44
2022/09/13 06:03:57;;;;;;;15.85;12.15;;;;;;;12.18;100.00;99029.36;1697029;81;21627;-38
2022/09/13 06:06:25;;;;;;;17.57;11.33;;;;;;;12.21;100.00;99021.39;1723742;81;21378;-45
2022/09/13 06:08:55;;;;;;;12.70;10.70;;;;;;;12.26;100.00;99026.52;1742852;81;21014;-44
2022/09/13 06:11:24;;;;;;;13.18;10.78;;;;;;;12.31;100.00;99020.70;1744824;81;21632;-44
2022/09/13 06:13:53;;;;;;;14.63;10.85;;;;;;;12.37;100.00;99024.47;1743938;81;21651;-44
2022/09/13 06:16:20;;;;;;;14.10;9.68;;;;;;;12.41;100.00;99026.56;1741694;81;20962;-44
2022/09/13 06:18:49;;;;;;;12.15;9.23;;;;;;;12.43;100.00;99028.69;1747886;80;21097;-43
2022/09/13 06:21:19;;;;;;;20.82;12.75;;;;;;;12.42;100.00;99026.52;1733507;81;20990;-36
2022/09/13 06:23:47;;;;;;;17.37;11.18;;;;;;;12.45;100.00;99026.41;1723254;81;21181;-43
2022/09/13 06:26:17;;;;;;;12.50;10.63;;;;;;;12.48;100.00;99029.42;1746986;81;21059;-44
2022/09/13 06:28:53;;;;;;;12.65;10.03;;;;;;;12.48;100.00;99031.59;1754591;79;21001;-44
2022/09/13 06:31:27;;;;;;;12.95;10.45;;;;;;;12.52;100.00;99036.28;1758007;79;21053;-44
2022/09/13 06:34:01;;;;;;;13.03;9.70;;;;;;;12.57;100.00;99041.41;1781593;79;21040;-45
2022/09/13 06:36:27;;;;;;;11.38;9.63;;;;;;;12.58;100.00;99047.95;1781318;79;21034;-37
2022/09/13 06:38:55;;;;;;;8.53;7.22;;;;;;;12.60;100.00;99049.20;1786443;77;21091;-36
2022/09/13 06:41:23;;;;;;;12.20;9.40;;;;;;;12.62;100.00;99049.56;1785701;79;21567;-45
2022/09/13 06:43:54;;;;;;;9.58;8.58;;;;;;;12.64;100.00;99045.16;1780354;79;21041;-37
2022/09/13 06:46:21;;;;;;;9.53;7.80;;;;;;;12.65;100.00;99044.24;1788854;79;20958;-37
2022/09/13 06:48:48;;;;;;;10.45;7.80;;;;;;;12.68;100.00;99045.45;1781781;77;21024;-44
2022/09/13 06:51:18;;;;;;;7.85;7.05;;;;;;;12.71;100.00;99044.52;1787133;79;21024;-44
2022/09/13 06:53:47;;;;;;;8.80;7.05;;;;;;;12.73;100.00;99044.02;1731332;81;21612;-37
2022/09/13 06:56:22;;;;;;;7.33;6.40;;;;;;;12.75;100.00;99044.36;1789988;79;20961;-44
2022/09/13 06:58:51;;;;;;;8.90;6.53;;;;;;;12.75;100.00;99036.49;1749039;81;21659;-36
2022/09/13 07:01:38;;;;;;;14.58;8.30;;;;;;;12.74;100.00;99034.78;1717821;82;20987;-36
2022/09/13 07:04:10;;;;;;;12.13;6.72;;;;;;;12.74;100.00;99032.61;1786004;79;21023;-45
2022/09/13 07:06:46;;;;;;;5.73;5.17;;;;;;;12.74;100.00;99035.23;1785541;79;20946;-37
2022/09/13 07:09:17;;;;;;;6.08;5.42;;;;;;;12.74;100.00;99035.23;1793527;77;21113;-37
2022/09/13 07:11:44;;;;;;;5.83;5.00;;;;;;;12.74;100.00;99033.47;1736291;81;21561;-45
2022/09/13 07:14:13;;;;;;;5.30;4.80;;;;;;;12.74;100.00;99041.34;1751061;80;21037;-45
2022/09/13 07:16:40;;;;;;;4.55;4.15;;;;;;;12.74;100.00;99036.09;1767244;79;21333;-37
2022/09/13 07:19:15;;;;;;;4.30;3.77;;;;;;;12.75;100.00;99034.32;1771537;78;21111;-45
2022/09/13 07:21:43;;;;;;;5.37;4.85;;;;;;;12.74;100.00;99037.41;1777360;79;21005;-44
2022/09/13 07:24:11;;;;;;;5.40;4.12;;;;;;;12.73;100.00;99040.08;1766251;79;21033;-44
2022/09/13 07:26:38;;;;;;;4.25;3.85;;;;;;;12.73;100.00;99046.19;1774485;79;21109;-44
2022/09/13 07:29:07;;;;;;;7.08;4.72;;;;;;;12.74;100.00;99046.59;1785817;78;21020;-37
2022/09/13 07:31:38;;;;;;;4.15;3.75;;;;;;;12.76;100.00;99041.31;1794331;78;21430;-37
2022/09/13 07:34:07;;;;;;;5.35;4.17;;;;;;;12.78;100.00;99042.13;1785059;78;21043;-37
2022/09/13 07:36:35;;;;;;;5.20;4.70;;;;;;;12.79;100.00;99044.70;1780431;79;20944;-45
2022/09/13 07:39:02;;;;;;;5.97;4.28;;;;;;;12.81;100.00;99052.97;1745468;79;21065;-45
2022/09/13 07:41:29;;;;;;;4.12;3.77;;;;;;;12.84;100.00;99054.21;1772464;79;20965;-45
2022/09/13 07:43:56;;;;;;;5.08;4.42;;;;;;;12.90;100.00;99044.84;1779330;77;21025;-44
2022/09/13 07:46:26;;;;;;;4.47;4.08;;;;;;;12.97;100.00;99049.86;1791438;78;20957;-44
2022/09/13 07:48:54;;;;;;;4.92;4.47;;;;;;;13.07;100.00;99053.54;1792978;78;21060;-45
2022/09/13 07:51:32;;;;;;;8.90;4.30;;;;;;;13.15;100.00;99055.02;1796501;78;21302;-38
2022/09/13 07:54:03;;;;;;;4.53;4.12;;;;;;;13.22;100.00;99045.22;1793400;78;21050;-37
2022/09/13 07:56:35;;;;;;;4.28;3.87;;;;;;;13.26;100.00;99046.39;1789159;78;21336;-45
2022/09/13 07:59:05;;;;;;;4.37;3.83;;;;;;;13.30;100.00;99051.11;1748059;80;21507;-44
2022/09/13 08:01:42;;;;;;;3.37;3.08;;;;;;;13.34;100.00;99047.95;1739245;80;21911;-37
2022/09/13 08:04:11;;;;;;;3.60;3.30;;;;;;;13.37;100.00;99042.58;1745750;80;21881;-37
2022/09/13 08:06:40;;;;;;;3.85;3.45;;;;;;;13.40;100.00;99043.81;1710472;82;20955;-37
2022/09/13 08:09:07;;;;;;;3.47;3.17;;;;;;;13.40;100.00;99044.67;1734148;81;21051;-44
2022/09/13 08:11:39;;;;;;;3.17;2.85;;;;;;;13.41;100.00;99037.19;1787531;78;21002;-45
2022/09/13 08:14:08;;;;;;;2.70;2.50;;;;;;;13.40;100.00;99041.19;1786214;78;21045;-37
2022/09/13 08:16:35;;;;;;;4.10;2.87;;;;;;;13.37;100.00;99042.58;1773068;79;21412;-44
2022/09/13 08:19:03;;;;;;;2.33;2.12;;;;;;;13.34;100.00;99050.13;1704950;81;21484;-36
2022/09/13 08:21:39;;;;;;;2.12;2.02;;;;;;;13.32;100.00;99045.34;1769381;79;20992;-45
2022/09/13 08:24:20;;;;;;;2.20;1.60;;;;;;;13.30;100.00;99041.46;1741683;79;21763;-39
2022/09/13 08:26:47;;;;;;;1.72;1.62;;;;;;;13.32;100.00;99049.28;1757736;79;21411;-44
2022/09/13 08:29:15;;;;;;;1.67;1.57;;;;;;;13.31;100.00;99046.26;1735449;79;21023;-36
2022/09/13 08:31:43;;;;;;;1.77;1.67;;;;;;;13.30;100.00;99042.78;1725544;81;20980;-44
2022/09/13 08:34:13;;;;;;;2.15;1.75;;;;;;;13.29;100.00;99050.71;1751229;81;21440;-38
2022/09/13 08:36:42;;;;;;;2.75;1.32;;;;;;;13.31;100.00;99041.01;1703526;81;21803;-37
2022/09/13 08:39:11;;;;;;;3.08;1.37;;;;;;;13.33;100.00;99031.76;1765821;80;21036;-45
2022/09/13 08:41:48;;;;;;;1.47;1.07;;;;;;;13.36;100.00;99031.22;1769073;80;21063;-45
2022/09/13 08:44:34;;;;;;;1.25;1.10;;;;;;;13.43;100.00;99031.88;1767127;80;21622;-38
2022/09/13 08:47:12;;;;;;;1.80;1.10;;;;;;;13.52;100.00;99035.55;1773229;79;20965;-45
2022/09/13 08:49:43;;;;;;;1.07;1.07;;;;;;;13.58;100.00;99034.03;1768917;80;21102;-37
2022/09/13 08:52:35;;;;;;;1.07;1.02;;;;;;;13.63;100.00;99043.09;1771313;79;21034;-46
2022/09/13 08:55:07;;;;;;;3.08;1.52;;;;;;;13.62;100.00;99030.84;1770458;80;21904;-45
2022/09/13 08:57:43;;;;;;;1.30;1.20;;;;;;;13.63;100.00;99033.44;1771499;80;21007;-45
2022/09/13 09:00:16;;;;;;;1.85;1.30;;;;;;;13.64;100.00;99035.15;1774621;79;21066;-37
2022/09/13 09:03:03;;;;;;;1.00;1.00;;;;;;;13.61;100.00;99030.44;1777732;80;21502;-37
2022/09/13 09:05:32;;;;;;;1.27;1.17;;;;;;;13.56;100.00;99027.49;1759933;80;21699;-44
2022/09/13 09:08:12;;;;;;;1.20;1.15;;;;;;;13.50;100.00;99026.37;1714481;80;21515;-35
2022/09/13 09:10:48;;;;;;;1.15;1.12;;;;;;;13.51;100.00;99032.06;1754846;80;21051;-37
2022/09/13 09:13:29;;;;;;;1.70;1.60;;;;;;;13.50;100.00;99030.77;1778411;79;21041;-44
2022/09/13 09:16:01;;;;;;;1.98;1.52;;;;;;;13.49;100.00;99033.00;1733097;81;21068;-38
2022/09/13 09:18:40;;;;;;;2.72;1.85;;;;;;;13.48;100.00;99040.48;1688666;82;21386;-37
2022/09/13 09:21:17;;;;;;;2.10;1.57;;;;;;;13.46;100.00;99031.34;1729936;80;21132;-37
2022/09/13 09:23:54;;;;;;;2.58;1.82;;;;;;;13.46;100.00;99030.48;1768170;80;21057;-37
2022/09/13 09:26:27;;;;;;;2.08;1.77;;;;;;;13.42;100.00;99031.03;1708112;80;21661;-38
2022/09/13 09:29:02;;;;;;;3.35;1.80;;;;;;;13.42;100.00;99031.48;1765616;80;21023;-45
2022/09/13 09:31:54;;;;;;;1.75;1.62;;;;;;;13.46;100.00;99033.12;1748153;79;21038;-46
2022/09/13 09:34:45;;;;;;;2.17;1.80;;;;;;;13.47;100.00;99030.89;1732991;79;21036;-45
2022/09/13 09:37:26;;;;;;;2.17;1.98;;;;;;;13.50;100.00;99039.97;1772862;79;21007;-38
2022/09/13 09:39:54;;;;;;;1.90;1.80;;;;;;;13.50;100.00;99030.77;1775374;79;21021;-37
2022/09/13 09:42:27;;;;;;;3.72;2.00;;;;;;;13.50;100.00;99032.09;1769604;79;21033;-37
2022/09/13 09:45:07;;;;;;;5.03;2.30;;;;;;;13.49;100.00;99025.12;1773801;79;21025;-37
2022/09/13 09:47:45;;;;;;;3.80;1.90;;;;;;;13.50;100.00;99026.83;1763278;79;21165;-43
2022/09/13 09:50:17;;;;;;;3.45;2.65;;;;;;;13.52;100.00;99031.61;1772477;79;21030;-37
2022/09/13 09:53:13;;;;;;;2.90;2.58;;;;;;;13.56;100.00;99030.58;1768637;79;21615;-45
2022/09/13 09:55:53;;;;;;;2.92;2.60;;;;;;;13.57;100.00;99027.92;1773646;79;21072;-37
2022/09/13 09:58:45;;;;;;;2.45;2.27;;;;;;;13.54;100.00;99031.09;1771160;79;21537;-37
2022/09/13 10:01:34;;;;;;;2.90;2.37;;;;;;;13.48;100.00;99027.34;1770995;79;21022;-44
2022/09/13 10:04:21;;;;;;;4.37;2.55;;;;;;;13.43;100.00;99031.42;1773480;79;21541;-44
2022/09/13 10:06:50;;;;;;;2.52;2.33;;;;;;;13.41;100.00;99029.77;1775300;79;20996;-37
2022/09/13 10:09:19;;;;;;;4.75;2.92;;;;;;;13.39;100.00;99034.19;1769937;79;21073;-44
2022/09/13 10:11:54;;;;;;;3.40;3.10;;;;;;;13.37;100.00;99033.39;1777008;79;21013;-45
2022/09/13 10:14:47;;;;;;;2.87;2.65;;;;;;;13.36;100.00;99041.73;1775416;79;21001;-44
2022/09/13 10:17:26;;;;;;;3.45;3.15;;;;;;;13.42;100.00;99043.30;1771497;79;21083;-38
2022/09/13 10:20:00;;;;;;;4.17;3.33;;;;;;;13.50;100.00;99049.16;1772720;79;21066;-37
2022/09/13 10:22:31;;;;;;;3.83;3.52;;;;;;;13.63;100.00;99046.58;1731709;81;21110;-37
2022/09/13 10:25:23;;;;;;;3.60;3.30;;;;;;;13.78;100.00;99046.52;1674223;82;21062;-38
2022/09/13 10:27:56;;;;;;;3.95;3.65;;;;;;;13.95;100.00;99048.59;1673066;82;21891;-42
2022/09/13 10:30:44;;;;;;;4.00;3.60;;;;;;;14.09;100.00;99049.00;1663251;84;21639;-37
2022/09/13 10:33:30;;;;;;;3.67;3.35;;;;;;;14.21;100.00;99042.00;1676975;85;21180;-43
2022/09/13 10:36:04;;;;;;;4.60;4.10;;;;;;;14.33;100.00;99039.41;1674192;84;21683;-44
2022/09/13 10:38:37;;;;;;;4.40;3.95;;;;;;;14.52;100.00;99037.86;1671961;85;20983;-45
2022/09/13 10:41:07;;;;;;;5.25;3.87;;;;;;;14.65;100.00;99042.22;1700975;83;21062;-36
2022/09/13 10:43:34;;;;;;;5.80;4.70;;;;;;;14.69;100.00;99045.16;1705009;82;21069;-43
2022/09/13 10:46:05;;;;;;;5.17;4.67;;;;;;;14.73;100.00;99041.50;1723256;82;21388;-37
2022/09/13 10:48:45;;;;;;;6.90;4.10;;;;;;;14.76;100.00;99037.42;1705514;82;21069;-44
2022/09/13 10:51:35;;;;;;;4.58;4.10;;;;;;;14.79;100.00;99033.37;1708972;82;21075;-37
2022/09/13 10:54:19;;;;;;;4.45;4.05;;;;;;;14.80;100.00;99031.60;1684515;82;21537;-37
2022/09/13 10:56:47;;;;;;;5.28;4.42;;;;;;;14.76;100.00;99030.84;1704722;82;21002;-37
2022/09/13 10:59:32;;;;;;;3.92;3.52;;;;;;;14.74;100.00;99026.10;1684601;83;21370;-37
2022/09/13 11:02:10;;;;;;;2.80;2.52;;;;;;;14.72;100.00;99025.28;1707568;82;21478;-43
2022/09/13 11:04:59;;;;;;;3.62;2.72;;;;;;;14.70;100.00;99023.17;1705494;82;21097;-37
2022/09/13 11:07:44;;;;;;;6.17;3.27;;;;;;;14.70;99.49;99029.75;1705735;82;21516;-38
2022/09/13 11:10:22;;;;;;;4.62;3.52;;;;;;;14.71;100.00;99034.09;1763742;79;21557;-37
2022/09/13 11:13:01;;;;;;;4.12;3.30;;;;;;;14.69;100.00;99034.63;1764044;79;21450;-44
2022/09/13 11:15:41;;;;;;;4.47;3.90;;;;;;;14.68;100.00;99033.37;1684287;83;21056;-44
2022/09/13 11:18:23;;;;;;;5.22;4.33;;;;;;;14.64;100.00;99031.30;1685958;83;21103;-37
2022/09/13 11:21:16;;;;;;;5.25;4.75;;;;;;;14.62;100.00;99036.62;1680776;85;21095;-36
2022/09/13 11:24:11;;;;;;;11.53;6.28;;;;;;;14.59;100.00;99035.86;1685083;84;21652;-44
2022/09/13 11:27:04;;;;;;;6.70;5.03;;;;;;;14.53;100.00;99037.41;1622973;86;21037;-37
2022/09/13 11:30:10;;;;;;;5.70;5.10;;;;;;;14.45;100.00;99045.55;1681525;83;21135;-36
2022/09/13 11:32:57;;;;;;;7.50;5.42;;;;;;;14.34;100.00;99047.70;1663376;85;21741;-44
2022/09/13 11:35:35;;;;;;;7.33;5.85;;;;;;;14.18;100.00;99044.73;1667847;84;21094;-44
2022/09/13 11:38:37;;;;;;;7.08;5.80;;;;;;;13.99;100.00;99044.95;1664082;84;21065;-37
2022/09/13 11:41:42;;;;;;;5.12;4.50;;;;;;;13.82;100.00;99047.69;1669673;84;21627;-37
2022/09/13 11:44:26;;;;;;;8.03;3.92;;;;;;;13.71;100.00;99051.12;1673855;84;21141;-37
2022/09/13 11:47:20;;;;;;;5.28;4.05;;;;;;;13.61;100.00;99053.63;1673055;84;21041;-45
2022/09/13 11:50:10;;;;;;;5.70;3.58;;;;;;;13.51;100.00;99053.08;1662605;84;21924;-44
2022/09/13 11:52:48;;;;;;;5.83;4.58;;;;;;;13.42;100.00;99059.92;1720304;79;21027;-37
